createdAt,value
2023-01-23T00:01:02.222Z,94.89
2023-01-23T00:03:28.874Z,95.75
2023-01-23T00:06:07.621Z,95.70
2023-01-23T00:08:35.693Z,95.64
2023-01-23T00:11:07.424Z,95.25
2023-01-23T00:13:35.536Z,95.84
2023-01-23T00:16:09.882Z,95.30
2023-01-23T00:18:36.537Z,94.76
2023-01-23T00:21:08.471Z,95.43
2023-01-23T00:23:35.644Z,95.01
2023-01-23T00:26:07.796Z,95.09
2023-01-23T00:28:35.410Z,95.65
2023-01-23T00:31:06.953Z,96.53
2023-01-23T00:33:33.860Z,95.80
2023-01-23T00:36:00.862Z,95.73
2023-01-23T00:38:27.806Z,95.48
2023-01-23T00:40:56.292Z,96.26
2023-01-23T00:43:24.169Z,95.85
2023-01-23T00:45:51.365Z,96.49
2023-01-23T00:48:17.976Z,95.60
2023-01-23T00:50:44.982Z,95.32
2023-01-23T00:53:13.007Z,95.26
2023-01-23T00:55:40.260Z,94.75
2023-01-23T00:58:08.303Z,94.83
2023-01-23T01:00:36.065Z,94.25
2023-01-23T01:03:03.457Z,94.61
2023-01-23T01:05:30.330Z,94.83
2023-01-23T01:07:57.098Z,95.96
2023-01-23T01:10:25.598Z,95.48
2023-01-23T01:12:52.320Z,96.00
2023-01-23T01:15:18.990Z,96.19
2023-01-23T01:17:45.620Z,95.50
2023-01-23T01:20:12.868Z,95.29
2023-01-23T01:22:39.527Z,95.15
2023-01-23T01:25:06.776Z,94.29
2023-01-23T01:27:33.432Z,94.19
2023-01-23T01:30:00.055Z,94.36
2023-01-23T01:32:26.691Z,95.83
2023-01-23T01:34:53.448Z,94.92
2023-01-23T01:37:22.554Z,95.50
2023-01-23T01:39:49.348Z,95.07
2023-01-23T01:42:16.020Z,95.50
2023-01-23T01:45:28.722Z,95.65
2023-01-23T01:47:55.491Z,96.55
2023-01-23T01:50:22.515Z,97.11
2023-01-23T01:52:49.262Z,96.80
2023-01-23T01:55:15.996Z,96.22
2023-01-23T01:57:45.348Z,95.99
2023-01-23T02:00:16.206Z,95.55
2023-01-23T02:02:56.088Z,96.10
2023-01-23T02:05:26.416Z,96.10
2023-01-23T02:08:16.050Z,95.71
2023-01-23T02:10:44.174Z,96.09
2023-01-23T02:13:22.680Z,96.39
2023-01-23T02:15:50.099Z,95.98
2023-01-23T02:18:17.152Z,95.73
2023-01-23T02:20:44.646Z,95.73
2023-01-23T02:23:31.533Z,95.93
2023-01-23T02:26:05.270Z,96.05
2023-01-23T02:28:49.893Z,96.81
2023-01-23T02:31:16.603Z,96.99
2023-01-23T02:33:49.185Z,97.05
2023-01-23T02:36:18.163Z,97.13
2023-01-23T02:39:07.993Z,97.33
2023-01-23T02:41:41.201Z,97.85
2023-01-23T02:44:16.350Z,97.24
2023-01-23T02:46:43.007Z,97.09
2023-01-23T02:49:09.788Z,96.67
2023-01-23T02:51:36.687Z,96.48
2023-01-23T02:54:03.915Z,97.47
2023-01-23T02:56:30.668Z,97.51
2023-01-23T02:59:15.596Z,97.79
2023-01-23T03:01:42.247Z,98.56
2023-01-23T03:04:08.917Z,99.21
2023-01-23T03:06:37.614Z,99.32
2023-01-23T03:09:10.323Z,99.36
2023-01-23T03:11:39.539Z,98.96
2023-01-23T03:14:09.703Z,98.42
2023-01-23T03:16:38.270Z,99.19
2023-01-23T03:19:09.179Z,99.11
2023-01-23T03:21:40.378Z,98.62
2023-01-23T03:24:12.657Z,98.22
2023-01-23T03:26:40.940Z,98.15
2023-01-23T03:29:27.227Z,98.18
2023-01-23T03:31:53.874Z,97.83
2023-01-23T03:34:22.192Z,97.30
2023-01-23T03:36:48.861Z,97.24
2023-01-23T03:39:34.054Z,97.38
2023-01-23T03:42:00.759Z,97.30
2023-01-23T03:44:27.424Z,97.22
2023-01-23T03:46:54.033Z,96.93
2023-01-23T03:49:20.766Z,97.33
2023-01-23T03:51:47.517Z,97.27
2023-01-23T03:54:14.825Z,96.98
2023-01-23T03:56:42.822Z,96.19
2023-01-23T03:59:10.091Z,97.10
2023-01-23T04:01:37.662Z,97.61
2023-01-23T04:04:04.661Z,96.77
2023-01-23T04:06:31.316Z,97.39
2023-01-23T04:08:58.300Z,97.39
2023-01-23T04:11:26.814Z,97.30
2023-01-23T04:13:54.713Z,97.34
2023-01-23T04:16:25.464Z,97.77
2023-01-23T04:18:52.435Z,97.87
2023-01-23T04:21:19.088Z,97.62
2023-01-23T04:23:46.177Z,97.66
2023-01-23T04:26:13.359Z,97.65
2023-01-23T04:28:40.230Z,97.71
2023-01-23T04:31:09.321Z,97.58
2023-01-23T04:33:36.196Z,98.14
2023-01-23T04:36:05.243Z,96.60
2023-01-23T04:38:33.517Z,96.26
2023-01-23T04:41:00.310Z,97.04
2023-01-23T04:43:27.132Z,97.37
2023-01-23T04:45:56.818Z,98.31
2023-01-23T04:48:24.423Z,98.21
2023-01-23T04:50:51.391Z,99.42
2023-01-23T04:53:18.155Z,98.66
2023-01-23T04:55:47.387Z,98.75
2023-01-23T04:58:14.095Z,98.33
2023-01-23T05:00:40.774Z,98.34
2023-01-23T05:03:07.398Z,98.35
2023-01-23T05:05:34.235Z,98.43
2023-01-23T05:08:00.845Z,98.40
2023-01-23T05:10:27.579Z,98.44
2023-01-23T05:12:54.213Z,98.21
2023-01-23T05:15:21.300Z,98.65
2023-01-23T05:17:48.936Z,97.81
2023-01-23T05:20:15.819Z,97.10
2023-01-23T05:22:52.262Z,97.58
2023-01-23T05:25:25.466Z,98.41
2023-01-23T05:27:52.905Z,98.59
2023-01-23T05:30:22.062Z,99.46
2023-01-23T05:32:49.372Z,99.32
2023-01-23T05:35:16.889Z,99.49
2023-01-23T05:37:43.536Z,99.21
2023-01-23T05:40:13.293Z,98.85
2023-01-23T05:42:39.964Z,98.53
2023-01-23T05:45:07.314Z,98.45
2023-01-23T05:47:34.181Z,97.83
2023-01-23T05:50:01.260Z,97.51
2023-01-23T05:52:27.995Z,97.76
2023-01-23T05:54:54.696Z,98.34
2023-01-23T05:57:21.386Z,98.03
2023-01-23T05:59:48.073Z,98.29
2023-01-23T06:02:14.882Z,98.28
2023-01-23T06:04:41.752Z,98.68
2023-01-23T06:07:14.398Z,98.12
2023-01-23T06:09:41.210Z,98.87
2023-01-23T06:12:08.889Z,98.89
2023-01-23T06:14:35.812Z,98.71
2023-01-23T06:17:02.844Z,98.69
2023-01-23T06:19:29.583Z,99.01
2023-01-23T06:21:56.428Z,99.01
2023-01-23T06:24:23.225Z,98.67
2023-01-23T06:26:50.533Z,98.90
2023-01-23T06:29:17.215Z,98.33
2023-01-23T06:31:43.902Z,97.58
2023-01-23T06:34:10.844Z,97.95
2023-01-23T06:36:37.547Z,98.20
2023-01-23T06:39:04.141Z,98.81
2023-01-23T06:41:30.807Z,98.98
2023-01-23T06:43:57.623Z,99.16
2023-01-23T06:46:24.335Z,99.54
2023-01-23T06:48:52.562Z,100.00
2023-01-23T06:51:19.228Z,99.95
2023-01-23T06:53:45.912Z,99.86
2023-01-23T06:56:12.620Z,99.51
2023-01-23T06:58:39.221Z,100.00
2023-01-23T07:01:15.872Z,100.00
2023-01-23T07:03:44.840Z,100.00
2023-01-23T07:06:13.051Z,100.00
2023-01-23T07:08:40.054Z,100.00
2023-01-23T07:11:07.290Z,100.00
2023-01-23T07:13:34.047Z,99.94
2023-01-23T07:16:01.637Z,99.73
2023-01-23T07:18:30.272Z,99.63
2023-01-23T07:20:57.000Z,100.00
2023-01-23T07:23:23.840Z,99.85
2023-01-23T07:25:50.730Z,98.82
2023-01-23T07:28:17.362Z,98.53
2023-01-23T07:30:44.093Z,99.40
2023-01-23T07:33:12.270Z,98.70
2023-01-23T07:35:40.099Z,98.93
2023-01-23T07:38:06.659Z,98.08
2023-01-23T07:40:33.276Z,97.60
2023-01-23T07:42:59.881Z,97.81
2023-01-23T07:45:26.568Z,98.06
2023-01-23T07:47:53.119Z,98.40
2023-01-23T07:50:19.940Z,98.72
2023-01-23T07:52:46.759Z,98.26
2023-01-23T07:55:13.428Z,97.33
2023-01-23T07:57:40.024Z,97.20
2023-01-23T08:00:07.809Z,97.95
2023-01-23T08:02:34.371Z,97.86
2023-01-23T08:05:00.928Z,97.79
2023-01-23T08:07:27.565Z,97.06
2023-01-23T08:09:54.178Z,96.44
2023-01-23T08:12:20.823Z,95.81
2023-01-23T08:14:48.100Z,96.21
2023-01-23T08:17:14.787Z,95.38
2023-01-23T08:19:41.352Z,95.68
2023-01-23T08:22:07.932Z,95.29
2023-01-23T08:24:34.548Z,94.26
2023-01-23T08:27:01.292Z,94.57
2023-01-23T08:29:27.924Z,95.05
2023-01-23T08:31:55.122Z,94.30
2023-01-23T08:34:22.077Z,94.53
2023-01-23T08:36:48.708Z,94.03
2023-01-23T08:39:17.085Z,92.86
2023-01-23T08:41:43.628Z,93.03
2023-01-23T08:44:10.242Z,93.03
2023-01-23T08:46:36.821Z,93.11
2023-01-23T08:49:04.918Z,93.81
2023-01-23T08:51:31.555Z,94.49
2023-01-23T08:53:58.181Z,94.11
2023-01-23T08:56:25.227Z,93.68
2023-01-23T08:58:51.951Z,93.62
2023-01-23T09:01:24.344Z,92.91
2023-01-23T09:03:50.861Z,93.38
2023-01-23T09:06:19.311Z,92.59
2023-01-23T09:08:46.218Z,93.84
2023-01-23T09:11:14.060Z,94.49
2023-01-23T09:13:41.175Z,93.94
2023-01-23T09:16:08.956Z,94.47
2023-01-23T09:18:36.319Z,92.83
2023-01-23T09:21:11.931Z,93.06
2023-01-23T09:23:38.827Z,92.35
2023-01-23T09:26:11.196Z,92.27
2023-01-23T09:28:40.102Z,92.39
2023-01-23T09:31:08.748Z,92.03
2023-01-23T09:33:35.987Z,91.46
2023-01-23T09:36:03.790Z,91.21
2023-01-23T09:38:30.713Z,91.56
2023-01-23T09:40:58.982Z,91.63
2023-01-23T09:43:35.739Z,91.62
2023-01-23T09:46:31.593Z,92.22
2023-01-23T09:49:37.320Z,91.86
2023-01-23T09:52:11.187Z,91.22
2023-01-23T09:54:50.367Z,90.83
2023-01-23T09:57:42.718Z,91.28
2023-01-23T10:00:36.509Z,91.02
2023-01-23T10:03:11.343Z,91.51
2023-01-23T10:06:08.154Z,91.36
2023-01-23T10:09:16.203Z,92.31
2023-01-23T10:11:59.288Z,91.29
2023-01-23T10:14:58.329Z,92.28
2023-01-23T10:17:41.565Z,91.74
2023-01-23T10:20:40.399Z,90.87
2023-01-23T10:24:01.897Z,91.33
2023-01-23T10:26:34.542Z,91.49
2023-01-23T10:29:15.674Z,91.95
2023-01-23T10:32:04.568Z,91.11
2023-01-23T10:34:55.601Z,92.48
2023-01-23T11:02:44.199Z,93.32
2023-01-23T11:05:52.508Z,93.56
2023-01-23T11:08:36.229Z,93.83
2023-01-23T11:14:10.737Z,94.23
2023-01-23T11:16:38.159Z,94.24
2023-01-23T11:19:16.177Z,95.01
2023-01-23T11:21:58.534Z,95.21
2023-01-23T11:24:45.374Z,93.72
2023-01-23T11:27:31.085Z,93.71
2023-01-23T11:30:27.010Z,94.23
2023-01-23T11:33:12.735Z,94.62
2023-01-23T11:36:03.074Z,95.42
2023-01-23T11:38:42.115Z,93.49
2023-01-23T11:41:15.196Z,94.19
2023-01-23T11:43:42.293Z,93.66
2023-01-23T11:46:56.933Z,93.69
2023-01-23T11:50:11.727Z,92.86
2023-01-23T11:53:05.060Z,93.78
2023-01-23T11:55:45.885Z,92.66
2023-01-23T11:59:14.498Z,92.95
2023-01-23T12:02:39.414Z,92.18
2023-01-23T12:11:20.499Z,93.68
2023-01-23T12:14:03.342Z,93.43
2023-01-23T12:16:56.728Z,94.40
2023-01-23T12:38:06.812Z,94.75
2023-01-23T12:41:00.113Z,94.08
2023-01-23T12:43:59.565Z,94.38
2023-01-23T12:46:34.438Z,94.70
2023-01-23T12:52:23.822Z,93.87
2023-01-23T13:10:05.853Z,94.92
2023-01-23T13:12:33.084Z,94.81
2023-01-23T13:15:38.776Z,94.29
2023-01-23T13:18:06.267Z,93.61
2023-01-23T13:21:14.793Z,94.17
2023-01-23T13:23:41.517Z,94.24
2023-01-23T13:26:28.918Z,93.31
2023-01-23T13:29:02.215Z,94.95
2023-01-23T13:31:40.110Z,95.45
2023-01-23T13:34:37.124Z,96.41
2023-01-23T13:37:50.924Z,96.65
2023-01-23T13:40:21.223Z,97.11
2023-01-23T13:42:47.952Z,96.26
2023-01-23T13:45:27.514Z,95.76
2023-01-23T14:22:12.228Z,96.41
2023-01-23T14:24:55.029Z,96.01
2023-01-23T14:27:52.128Z,96.96
2023-01-23T14:30:28.200Z,96.50
2023-01-23T14:32:55.510Z,96.81
2023-01-23T14:35:43.013Z,96.96
2023-01-23T14:38:16.174Z,96.43
2023-01-23T14:40:51.043Z,96.09
2023-01-23T14:43:21.915Z,97.56
2023-01-23T14:45:54.045Z,97.94
2023-01-23T14:48:21.787Z,97.43
2023-01-23T14:50:48.433Z,97.45
2023-01-23T14:53:16.903Z,97.19
2023-01-23T14:55:47.090Z,97.97
2023-01-23T14:58:22.647Z,98.17
2023-01-23T15:00:50.311Z,97.96
2023-01-23T15:03:37.206Z,98.88
2023-01-23T15:06:09.975Z,98.33
2023-01-23T15:08:37.604Z,99.50
2023-01-23T15:11:06.557Z,99.22
2023-01-23T15:13:48.618Z,98.89
2023-01-23T15:16:29.041Z,99.60
2023-01-23T15:19:02.851Z,98.68
2023-01-23T15:21:33.189Z,99.67
2023-01-23T15:24:20.040Z,98.75
2023-01-23T15:26:58.768Z,99.48
2023-01-23T15:29:27.125Z,99.58
2023-01-23T15:31:55.201Z,99.14
2023-01-23T15:34:29.401Z,98.92
2023-01-23T15:37:21.465Z,97.94
2023-01-23T15:40:04.977Z,98.26
2023-01-23T15:42:34.066Z,97.56
2023-01-23T15:45:01.743Z,97.69
2023-01-23T15:47:30.400Z,97.84
2023-01-23T15:50:01.497Z,97.94
2023-01-23T15:52:48.668Z,97.95
2023-01-23T15:55:15.601Z,97.58
2023-01-23T15:57:43.233Z,98.72
2023-01-23T16:00:18.611Z,98.25
2023-01-23T16:02:55.510Z,97.96
2023-01-23T16:05:25.133Z,97.69
2023-01-23T16:07:53.338Z,97.27
2023-01-23T16:10:25.844Z,98.10
2023-01-23T16:12:53.755Z,97.78
2023-01-23T16:15:23.732Z,97.68
2023-01-23T16:17:51.237Z,97.96
2023-01-23T16:20:20.450Z,98.20
2023-01-23T16:22:51.413Z,99.09
2023-01-23T16:25:43.711Z,97.83
2023-01-23T16:28:20.805Z,98.97
2023-01-23T16:30:48.210Z,99.25
2023-01-23T16:33:14.947Z,97.91
2023-01-23T16:35:41.858Z,98.42
2023-01-23T16:38:19.694Z,99.21
2023-01-23T16:40:46.295Z,98.73
2023-01-23T16:43:12.878Z,97.90
2023-01-23T16:45:39.562Z,98.69
2023-01-23T16:48:09.171Z,98.30
2023-01-23T16:50:41.366Z,97.94
2023-01-23T16:53:27.823Z,98.44
2023-01-23T16:55:56.923Z,98.09
2023-01-23T16:58:34.034Z,98.03
2023-01-23T17:01:03.726Z,97.90
2023-01-23T17:03:33.806Z,99.01
2023-01-23T17:06:00.770Z,98.48
2023-01-23T17:08:27.770Z,98.35
2023-01-23T17:10:58.341Z,98.29
2023-01-23T17:13:25.621Z,97.82
2023-01-23T17:15:55.583Z,97.71
2023-01-23T17:18:31.125Z,97.92
2023-01-23T17:20:58.753Z,98.38
2023-01-23T17:23:25.754Z,98.47
2023-01-23T17:26:00.798Z,98.43
2023-01-23T17:28:28.683Z,97.86
2023-01-23T17:30:57.894Z,97.74
2023-01-23T17:33:28.330Z,98.40
2023-01-23T17:35:54.968Z,98.19
2023-01-23T17:38:26.877Z,97.80
2023-01-23T17:40:53.788Z,97.93
2023-01-23T17:43:21.396Z,98.50
2023-01-23T17:45:51.367Z,98.32
2023-01-23T17:48:25.092Z,99.30
2023-01-23T17:50:51.971Z,99.49
2023-01-23T17:53:19.468Z,99.12
2023-01-23T17:55:49.339Z,98.89
2023-01-23T17:58:16.218Z,99.79
2023-01-23T18:00:44.663Z,99.43
2023-01-23T18:03:17.962Z,97.82
2023-01-23T18:05:44.561Z,98.64
2023-01-23T18:08:15.956Z,98.53
2023-01-23T18:10:48.151Z,98.50
2023-01-23T18:13:28.157Z,99.48
2023-01-23T18:16:25.581Z,98.78
2023-01-23T18:19:14.992Z,98.48
2023-01-23T18:21:42.097Z,98.73
2023-01-23T18:24:32.604Z,97.96
2023-01-23T18:27:04.284Z,99.34
2023-01-23T18:30:13.693Z,98.65
2023-01-23T18:33:05.787Z,98.99
2023-01-23T18:36:09.980Z,99.49
2023-01-23T18:39:03.677Z,99.28
2023-01-23T18:41:30.564Z,99.95
2023-01-23T18:44:27.471Z,99.09
2023-01-23T18:46:54.533Z,99.31
2023-01-23T18:49:32.459Z,98.77
2023-01-23T18:52:09.112Z,100.00
2023-01-23T18:54:45.346Z,100.00
2023-01-23T18:58:08.993Z,100.00
2023-01-23T19:00:53.729Z,100.00
2023-01-23T19:03:36.279Z,100.00
2023-01-23T19:06:12.919Z,100.00
2023-01-23T19:08:40.800Z,100.00
2023-01-23T19:11:24.344Z,100.00
2023-01-23T19:14:17.470Z,100.00
2023-01-23T19:17:02.354Z,100.00
2023-01-23T19:19:38.299Z,100.00
2023-01-23T19:22:11.745Z,100.00
2023-01-23T19:24:38.815Z,100.00
2023-01-23T19:27:17.050Z,100.00
2023-01-23T19:29:43.994Z,100.00
2023-01-23T19:32:11.253Z,100.00
2023-01-23T19:34:38.151Z,99.15
2023-01-23T19:37:04.898Z,99.04
2023-01-23T19:39:31.490Z,100.00
2023-01-23T19:41:59.437Z,99.63
2023-01-23T19:44:28.855Z,99.96
2023-01-23T19:46:55.635Z,100.00
2023-01-23T19:49:22.343Z,100.00
2023-01-23T19:51:48.969Z,99.46
2023-01-23T19:54:16.295Z,100.00
2023-01-23T19:56:43.020Z,100.00
2023-01-23T19:59:09.824Z,100.00
2023-01-23T20:01:48.508Z,100.00
2023-01-23T20:04:20.816Z,100.00
2023-01-23T20:06:54.152Z,100.00
2023-01-23T20:09:22.149Z,100.00
2023-01-23T20:11:48.921Z,100.00
2023-01-23T20:14:15.805Z,99.57
2023-01-23T20:16:43.308Z,100.00
2023-01-23T20:19:14.764Z,100.00
2023-01-23T20:21:41.565Z,100.00
2023-01-23T20:24:08.594Z,100.00
2023-01-23T20:26:35.836Z,100.00
2023-01-23T20:29:03.908Z,99.60
2023-01-23T20:31:31.126Z,100.00
2023-01-23T20:33:58.042Z,100.00
2023-01-23T20:36:24.734Z,100.00
2023-01-23T20:38:51.376Z,99.80
2023-01-23T20:41:19.399Z,100.00
2023-01-23T20:43:46.777Z,100.00
2023-01-23T20:46:15.199Z,100.00
2023-01-23T20:48:44.254Z,100.00
2023-01-23T20:51:12.480Z,100.00
2023-01-23T20:53:40.051Z,100.00
2023-01-23T20:56:29.724Z,100.00
2023-01-23T20:59:15.616Z,100.00
2023-01-23T21:02:02.147Z,100.00
2023-01-23T21:04:31.840Z,100.00
2023-01-23T21:06:59.628Z,100.00
2023-01-23T21:09:26.737Z,100.00
2023-01-23T21:11:54.283Z,100.00
2023-01-23T21:14:22.360Z,100.00
2023-01-23T21:16:49.266Z,100.00
2023-01-23T21:19:16.172Z,100.00
2023-01-23T21:21:43.345Z,100.00
2023-01-23T21:24:10.303Z,100.00
2023-01-23T21:26:37.369Z,100.00
2023-01-23T21:29:04.693Z,100.00
2023-01-23T21:31:33.770Z,100.00
2023-01-23T21:34:08.067Z,100.00
2023-01-23T21:36:35.760Z,100.00
2023-01-23T21:39:02.836Z,100.00
2023-01-23T21:41:29.589Z,100.00
2023-01-23T21:43:56.224Z,100.00
2023-01-23T21:46:23.276Z,100.00
2023-01-23T21:48:50.055Z,100.00
2023-01-23T21:51:20.002Z,100.00
2023-01-23T21:53:48.422Z,100.00
2023-01-23T21:56:17.069Z,100.00
2023-01-23T21:58:44.098Z,100.00
2023-01-23T22:01:39.583Z,100.00
2023-01-23T22:04:22.527Z,100.00
2023-01-23T22:06:54.204Z,100.00
2023-01-23T22:09:22.220Z,100.00
2023-01-23T22:11:49.179Z,100.00
2023-01-23T22:14:16.882Z,100.00
2023-01-23T22:16:51.350Z,100.00
2023-01-23T22:19:24.184Z,100.00
2023-01-23T22:21:51.432Z,100.00
2023-01-23T22:24:18.334Z,100.00
2023-01-23T22:26:45.004Z,100.00
2023-01-23T22:29:13.190Z,100.00
2023-01-23T22:31:39.873Z,100.00
2023-01-23T22:34:06.804Z,100.00
2023-01-23T22:36:33.426Z,100.00
2023-01-23T22:39:00.040Z,100.00
2023-01-23T22:41:26.712Z,100.00
2023-01-23T22:43:54.724Z,100.00
2023-01-23T22:46:22.352Z,100.00
2023-01-23T22:48:49.316Z,100.00
2023-01-23T22:51:24.209Z,100.00
2023-01-23T22:53:51.683Z,100.00
2023-01-23T22:56:18.345Z,100.00
2023-01-23T22:58:49.109Z,100.00
2023-01-23T23:01:16.575Z,100.00
2023-01-23T23:03:43.568Z,100.00
2023-01-23T23:06:13.473Z,100.00
2023-01-23T23:08:40.571Z,100.00
2023-01-23T23:11:10.379Z,100.00
2023-01-23T23:13:38.708Z,100.00
2023-01-23T23:16:07.920Z,100.00
2023-01-23T23:18:36.179Z,100.00
2023-01-23T23:21:10.934Z,100.00
2023-01-23T23:23:38.041Z,100.00
2023-01-23T23:26:05.818Z,100.00
2023-01-23T23:28:33.391Z,100.00
2023-01-23T23:31:00.285Z,100.00
2023-01-23T23:33:26.957Z,100.00
2023-01-23T23:35:53.590Z,100.00
2023-01-23T23:38:20.738Z,100.00
2023-01-23T23:41:04.696Z,100.00
2023-01-23T23:43:31.787Z,100.00
2023-01-23T23:46:01.378Z,100.00
2023-01-23T23:48:29.347Z,100.00
2023-01-23T23:50:56.307Z,100.00
2023-01-23T23:53:23.152Z,100.00
2023-01-23T23:55:49.828Z,100.00
2023-01-23T23:58:16.945Z,100.00
